sensor_id;sensor_type;location;lat;lon;timestamp;pressure;altitude;pressure_sealevel;temperature;humidity
77749;BME280;66938;52.084;5.228;2023-07-31T00:00:20;101033.0;;;16.89;86.62
77749;BME280;66938;52.084;5.228;2023-07-31T00:01:57;101036.0;;;16.87;86.92
77749;BME280;66938;52.084;5.228;2023-07-31T00:03:34;101035.0;;;16.93;86.85
77749;BME280;66938;52.084;5.228;2023-07-31T00:05:11;101034.0;;;16.98;86.85
77749;BME280;66938;52.084;5.228;2023-07-31T00:08:25;101030.0;;;17.0;87.1
77749;BME280;66938;52.084;5.228;2023-07-31T00:10:01;101030.0;;;17.0;87.13
77749;BME280;66938;52.084;5.228;2023-07-31T00:11:38;101024.0;;;17.0;87.27
77749;BME280;66938;52.084;5.228;2023-07-31T00:14:52;101020.0;;;17.03;87.5
77749;BME280;66938;52.084;5.228;2023-07-31T00:16:29;101021.0;;;17.09;87.45
77749;BME280;66938;52.084;5.228;2023-07-31T00:18:05;101012.0;;;17.09;87.66
77749;BME280;66938;52.084;5.228;2023-07-31T00:21:20;101007.0;;;17.14;88.13
77749;BME280;66938;52.084;5.228;2023-07-31T00:22:57;101009.0;;;17.14;88.7
77749;BME280;66938;52.084;5.228;2023-07-31T00:24:34;101012.0;;;17.16;89.45
77749;BME280;66938;52.084;5.228;2023-07-31T00:26:11;101008.0;;;17.25;89.87
77749;BME280;66938;52.084;5.228;2023-07-31T00:29:24;101014.0;;;17.31;90.13
77749;BME280;66938;52.084;5.228;2023-07-31T00:31:01;101012.0;;;17.36;90.48
77749;BME280;66938;52.084;5.228;2023-07-31T00:32:38;101009.0;;;17.48;90.17
77749;BME280;66938;52.084;5.228;2023-07-31T00:35:51;101005.0;;;17.53;90.26
77749;BME280;66938;52.084;5.228;2023-07-31T00:37:28;101003.0;;;17.57;90.63
77749;BME280;66938;52.084;5.228;2023-07-31T00:39:05;101005.0;;;17.66;90.38
77749;BME280;66938;52.084;5.228;2023-07-31T00:40:42;101005.0;;;17.7;90.42
77749;BME280;66938;52.084;5.228;2023-07-31T00:43:54;101000.0;;;17.66;90.59
77749;BME280;66938;52.084;5.228;2023-07-31T00:45:32;101010.0;;;17.77;90.3
77749;BME280;66938;52.084;5.228;2023-07-31T00:47:09;101012.0;;;17.7;90.36
77749;BME280;66938;52.084;5.228;2023-07-31T00:50:24;101007.0;;;17.77;90.3
77749;BME280;66938;52.084;5.228;2023-07-31T00:52:01;101005.0;;;17.82;89.91
77749;BME280;66938;52.084;5.228;2023-07-31T00:53:38;101005.0;;;17.81;89.85
77749;BME280;66938;52.084;5.228;2023-07-31T00:56:53;101005.0;;;17.95;89.37
77749;BME280;66938;52.084;5.228;2023-07-31T00:58:31;100998.0;;;18.0;88.99
77749;BME280;66938;52.084;5.228;2023-07-31T01:00:08;101002.0;;;17.95;89.01
77749;BME280;66938;52.084;5.228;2023-07-31T01:01:46;100995.0;;;17.97;88.73
77749;BME280;66938;52.084;5.228;2023-07-31T01:05:01;101003.0;;;18.02;88.69
77749;BME280;66938;52.084;5.228;2023-07-31T01:06:44;100999.0;;;17.93;88.71
77749;BME280;66938;52.084;5.228;2023-07-31T01:08:37;101000.0;;;17.97;88.6
77749;BME280;66938;52.084;5.228;2023-07-31T01:10:29;100999.0;;;18.09;88.15
77749;BME280;66938;52.084;5.228;2023-07-31T01:12:13;101001.0;;;18.0;88.39
77749;BME280;66938;52.084;5.228;2023-07-31T01:15:28;100997.0;;;17.97;88.43
77749;BME280;66938;52.084;5.228;2023-07-31T01:17:04;101000.0;;;17.97;88.17
77749;BME280;66938;52.084;5.228;2023-07-31T01:18:41;100996.0;;;17.91;88.59
77749;BME280;66938;52.084;5.228;2023-07-31T01:22:14;100996.0;;;17.77;89.03
77749;BME280;66938;52.084;5.228;2023-07-31T01:24:19;100994.0;;;17.88;88.8
77749;BME280;66938;52.084;5.228;2023-07-31T01:26:24;100998.0;;;17.97;88.37
77749;BME280;66938;52.084;5.228;2023-07-31T01:28:11;100997.0;;;17.93;88.28
77749;BME280;66938;52.084;5.228;2023-07-31T01:29:56;101001.0;;;17.89;88.26
77749;BME280;66938;52.084;5.228;2023-07-31T01:31:36;101002.0;;;17.87;88.5
77749;BME280;66938;52.084;5.228;2023-07-31T01:33:15;100996.0;;;17.86;88.45
77749;BME280;66938;52.084;5.228;2023-07-31T01:36:31;100997.0;;;17.77;88.72
77749;BME280;66938;52.084;5.228;2023-07-31T01:38:08;100996.0;;;17.78;88.73
77749;BME280;66938;52.084;5.228;2023-07-31T01:39:45;101003.0;;;17.91;88.59
77749;BME280;66938;52.084;5.228;2023-07-31T01:41:22;100998.0;;;17.89;88.53
77749;BME280;66938;52.084;5.228;2023-07-31T01:44:35;100998.0;;;17.95;88.18
77749;BME280;66938;52.084;5.228;2023-07-31T01:46:11;100998.0;;;18.04;87.96
77749;BME280;66938;52.084;5.228;2023-07-31T01:47:48;101006.0;;;18.06;87.89
77749;BME280;66938;52.084;5.228;2023-07-31T01:51:02;101005.0;;;17.97;88.06
77749;BME280;66938;52.084;5.228;2023-07-31T01:52:39;100999.0;;;17.97;88.25
77749;BME280;66938;52.084;5.228;2023-07-31T01:54:16;101003.0;;;18.04;87.96
77749;BME280;66938;52.084;5.228;2023-07-31T01:57:28;100995.0;;;18.0;87.74
77749;BME280;66938;52.084;5.228;2023-07-31T01:59:04;100997.0;;;17.93;87.84
77749;BME280;66938;52.084;5.228;2023-07-31T02:00:42;100993.0;;;17.93;87.85
77749;BME280;66938;52.084;5.228;2023-07-31T02:02:19;101000.0;;;17.81;87.81
77749;BME280;66938;52.084;5.228;2023-07-31T02:05:33;100980.0;;;17.75;87.82
77749;BME280;66938;52.084;5.228;2023-07-31T02:07:10;100980.0;;;17.82;87.51
77749;BME280;66938;52.084;5.228;2023-07-31T02:08:47;100976.0;;;17.72;87.77
77749;BME280;66938;52.084;5.228;2023-07-31T02:12:01;100971.0;;;17.75;87.64
77749;BME280;66938;52.084;5.228;2023-07-31T02:13:37;100967.0;;;17.79;87.56
77749;BME280;66938;52.084;5.228;2023-07-31T02:15:13;100966.0;;;17.81;87.38
77749;BME280;66938;52.084;5.228;2023-07-31T02:18:27;100958.0;;;17.87;87.0
77749;BME280;66938;52.084;5.228;2023-07-31T02:20:05;100950.0;;;17.86;87.18
77749;BME280;66938;52.084;5.228;2023-07-31T02:21:42;100944.0;;;17.93;86.81
77749;BME280;66938;52.084;5.228;2023-07-31T02:23:19;100942.0;;;17.7;87.39
77749;BME280;66938;52.084;5.228;2023-07-31T02:26:32;100944.0;;;17.68;87.25
77749;BME280;66938;52.084;5.228;2023-07-31T02:28:08;100944.0;;;17.71;87.43
77749;BME280;66938;52.084;5.228;2023-07-31T02:29:45;100939.0;;;17.77;87.19
77749;BME280;66938;52.084;5.228;2023-07-31T02:32:58;100942.0;;;17.81;87.17
77749;BME280;66938;52.084;5.228;2023-07-31T02:34:36;100945.0;;;17.86;86.97
77749;BME280;66938;52.084;5.228;2023-07-31T02:36:12;100943.0;;;17.84;87.01
77749;BME280;66938;52.084;5.228;2023-07-31T02:39:26;100946.0;;;17.88;86.9
77749;BME280;66938;52.084;5.228;2023-07-31T02:41:03;100947.0;;;17.84;87.01
77749;BME280;66938;52.084;5.228;2023-07-31T02:42:40;100945.0;;;17.79;87.25
77749;BME280;66938;52.084;5.228;2023-07-31T02:44:16;100946.0;;;17.87;87.08
77749;BME280;66938;52.084;5.228;2023-07-31T02:47:30;100947.0;;;17.86;87.06
77749;BME280;66938;52.084;5.228;2023-07-31T02:49:06;100939.0;;;17.86;87.07
77749;BME280;66938;52.084;5.228;2023-07-31T02:50:42;100937.0;;;17.89;86.98
77749;BME280;66938;52.084;5.228;2023-07-31T02:53:56;100936.0;;;17.75;87.33
77749;BME280;66938;52.084;5.228;2023-07-31T02:55:32;100930.0;;;17.75;87.18
77749;BME280;66938;52.084;5.228;2023-07-31T02:58:45;100923.0;;;17.86;86.96
77749;BME280;66938;52.084;5.228;2023-07-31T03:01:58;100928.0;;;17.91;86.73
77749;BME280;66938;52.084;5.228;2023-07-31T03:03:36;100927.0;;;17.93;86.72
77749;BME280;66938;52.084;5.228;2023-07-31T03:05:13;100933.0;;;17.81;86.86
77749;BME280;66938;52.084;5.228;2023-07-31T03:08:27;100933.0;;;17.84;86.94
77749;BME280;66938;52.084;5.228;2023-07-31T03:10:04;100930.0;;;17.86;86.62
77749;BME280;66938;52.084;5.228;2023-07-31T03:11:40;100928.0;;;17.77;86.82
77749;BME280;66938;52.084;5.228;2023-07-31T03:14:55;100927.0;;;17.86;86.53
77749;BME280;66938;52.084;5.228;2023-07-31T03:16:32;100924.0;;;17.79;86.28
77749;BME280;66938;52.084;5.228;2023-07-31T03:18:09;100928.0;;;17.82;86.25
77749;BME280;66938;52.084;5.228;2023-07-31T03:19:45;100925.0;;;17.84;86.03
77749;BME280;66938;52.084;5.228;2023-07-31T03:22:58;100924.0;;;17.87;85.92
77749;BME280;66938;52.084;5.228;2023-07-31T03:24:35;100920.0;;;17.78;85.89
77749;BME280;66938;52.084;5.228;2023-07-31T03:26:12;100923.0;;;17.81;85.45
77749;BME280;66938;52.084;5.228;2023-07-31T03:29:26;100920.0;;;17.88;85.16
77749;BME280;66938;52.084;5.228;2023-07-31T03:31:02;100926.0;;;17.79;85.14
77749;BME280;66938;52.084;5.228;2023-07-31T03:32:39;100921.0;;;17.73;85.16
77749;BME280;66938;52.084;5.228;2023-07-31T03:35:52;100923.0;;;17.78;84.92
77749;BME280;66938;52.084;5.228;2023-07-31T03:37:29;100918.0;;;17.78;84.53
77749;BME280;66938;52.084;5.228;2023-07-31T03:39:06;100921.0;;;17.78;84.61
77749;BME280;66938;52.084;5.228;2023-07-31T03:40:43;100915.0;;;17.8;84.61
77749;BME280;66938;52.084;5.228;2023-07-31T03:43:57;100915.0;;;17.81;84.42
77749;BME280;66938;52.084;5.228;2023-07-31T03:45:34;100915.0;;;17.89;84.27
77749;BME280;66938;52.084;5.228;2023-07-31T03:47:11;100915.0;;;17.73;84.15
77749;BME280;66938;52.084;5.228;2023-07-31T03:50:24;100915.0;;;17.84;83.99
77749;BME280;66938;52.084;5.228;2023-07-31T03:52:00;100911.0;;;17.81;83.78
77749;BME280;66938;52.084;5.228;2023-07-31T03:53:38;100910.0;;;17.82;84.05
77749;BME280;66938;52.084;5.228;2023-07-31T03:55:15;100912.0;;;17.82;83.85
77749;BME280;66938;52.084;5.228;2023-07-31T03:58:28;100908.0;;;17.79;83.89
77749;BME280;66938;52.084;5.228;2023-07-31T04:00:06;100908.0;;;17.91;83.51
77749;BME280;66938;52.084;5.228;2023-07-31T04:01:43;100909.0;;;17.8;83.78
77749;BME280;66938;52.084;5.228;2023-07-31T04:04:57;100905.0;;;17.86;83.8
77749;BME280;66938;52.084;5.228;2023-07-31T04:06:33;100896.0;;;17.81;83.94
77749;BME280;66938;52.084;5.228;2023-07-31T04:08:10;100887.0;;;17.84;83.76
77749;BME280;66938;52.084;5.228;2023-07-31T04:11:23;100891.0;;;17.72;83.76
77749;BME280;66938;52.084;5.228;2023-07-31T04:13:00;100888.0;;;17.75;83.75
77749;BME280;66938;52.084;5.228;2023-07-31T04:14:37;100886.0;;;17.68;83.73
77749;BME280;66938;52.084;5.228;2023-07-31T04:16:14;100882.0;;;17.81;83.6
77749;BME280;66938;52.084;5.228;2023-07-31T04:19:27;100881.0;;;17.71;83.45
77749;BME280;66938;52.084;5.228;2023-07-31T04:21:03;100880.0;;;17.77;83.76
77749;BME280;66938;52.084;5.228;2023-07-31T04:22:40;100883.0;;;17.61;83.69
77749;BME280;66938;52.084;5.228;2023-07-31T04:25:55;100870.0;;;17.54;83.72
77749;BME280;66938;52.084;5.228;2023-07-31T04:27:32;100875.0;;;17.61;83.85
77749;BME280;66938;52.084;5.228;2023-07-31T04:29:08;100884.0;;;17.47;84.27
77749;BME280;66938;52.084;5.228;2023-07-31T04:32:23;100878.0;;;17.48;84.65
77749;BME280;66938;52.084;5.228;2023-07-31T04:34:00;100880.0;;;17.41;85.01
77749;BME280;66938;52.084;5.228;2023-07-31T04:35:37;100881.0;;;17.41;85.42
77749;BME280;66938;52.084;5.228;2023-07-31T04:37:13;100877.0;;;17.47;85.24
77749;BME280;66938;52.084;5.228;2023-07-31T04:40:27;100875.0;;;17.45;85.2
77749;BME280;66938;52.084;5.228;2023-07-31T04:42:04;100874.0;;;17.47;85.12
77749;BME280;66938;52.084;5.228;2023-07-31T04:43:40;100871.0;;;17.41;85.38
77749;BME280;66938;52.084;5.228;2023-07-31T04:46:55;100874.0;;;17.39;85.39
77749;BME280;66938;52.084;5.228;2023-07-31T04:48:32;100876.0;;;17.22;86.15
77749;BME280;66938;52.084;5.228;2023-07-31T04:50:09;100872.0;;;17.14;86.6
77749;BME280;66938;52.084;5.228;2023-07-31T04:51:45;100865.0;;;17.12;86.81
77749;BME280;66938;52.084;5.228;2023-07-31T04:54:59;100866.0;;;17.2;86.58
77749;BME280;66938;52.084;5.228;2023-07-31T04:56:35;100863.0;;;17.25;86.54
77749;BME280;66938;52.084;5.228;2023-07-31T04:58:12;100853.0;;;17.22;86.71
77749;BME280;66938;52.084;5.228;2023-07-31T05:01:25;100852.0;;;17.29;86.57
77749;BME280;66938;52.084;5.228;2023-07-31T05:03:02;100855.0;;;17.3;86.5
77749;BME280;66938;52.084;5.228;2023-07-31T05:04:39;100857.0;;;17.36;86.41
77749;BME280;66938;52.084;5.228;2023-07-31T05:07:53;100855.0;;;17.32;86.43
77749;BME280;66938;52.084;5.228;2023-07-31T05:09:30;100849.0;;;17.29;86.66
77749;BME280;66938;52.084;5.228;2023-07-31T05:11:07;100847.0;;;17.27;86.6
77749;BME280;66938;52.084;5.228;2023-07-31T05:12:45;100847.0;;;17.22;86.91
77749;BME280;66938;52.084;5.228;2023-07-31T05:15:59;100845.0;;;17.18;87.19
77749;BME280;66938;52.084;5.228;2023-07-31T05:17:35;100851.0;;;17.14;87.38
77749;BME280;66938;52.084;5.228;2023-07-31T05:19:12;100845.0;;;17.18;87.42
77749;BME280;66938;52.084;5.228;2023-07-31T05:22:26;100845.0;;;17.27;87.52
77749;BME280;66938;52.084;5.228;2023-07-31T05:24:04;100844.0;;;17.18;87.68
77749;BME280;66938;52.084;5.228;2023-07-31T05:25:42;100840.0;;;17.27;87.48
77749;BME280;66938;52.084;5.228;2023-07-31T05:27:19;100842.0;;;17.34;87.27
77749;BME280;66938;52.084;5.228;2023-07-31T05:30:32;100843.0;;;17.36;87.13
77749;BME280;66938;52.084;5.228;2023-07-31T05:32:08;100834.0;;;17.29;87.48
77749;BME280;66938;52.084;5.228;2023-07-31T05:33:45;100831.0;;;17.11;87.96
77749;BME280;66938;52.084;5.228;2023-07-31T05:36:58;100826.0;;;17.22;87.73
77749;BME280;66938;52.084;5.228;2023-07-31T05:38:35;100824.0;;;17.2;87.6
77749;BME280;66938;52.084;5.228;2023-07-31T05:40:12;100818.0;;;17.12;87.89
77749;BME280;66938;52.084;5.228;2023-07-31T05:43:26;100819.0;;;17.16;87.83
77749;BME280;66938;52.084;5.228;2023-07-31T05:45:05;100814.0;;;17.16;87.53
77749;BME280;66938;52.084;5.228;2023-07-31T05:46:42;100817.0;;;17.11;88.07
77749;BME280;66938;52.084;5.228;2023-07-31T05:48:19;100811.0;;;17.16;87.89
77749;BME280;66938;52.084;5.228;2023-07-31T05:51:32;100808.0;;;17.18;87.88
77749;BME280;66938;52.084;5.228;2023-07-31T05:53:08;100807.0;;;17.22;87.71
77749;BME280;66938;52.084;5.228;2023-07-31T05:54:46;100807.0;;;17.09;88.16
77749;BME280;66938;52.084;5.228;2023-07-31T05:58:00;100799.0;;;17.06;88.48
77749;BME280;66938;52.084;5.228;2023-07-31T05:59:37;100796.0;;;17.12;88.27
77749;BME280;66938;52.084;5.228;2023-07-31T06:01:13;100792.0;;;17.23;87.96
77749;BME280;66938;52.084;5.228;2023-07-31T06:04:27;100799.0;;;17.21;88.05
77749;BME280;66938;52.084;5.228;2023-07-31T06:06:03;100798.0;;;17.18;88.35
77749;BME280;66938;52.084;5.228;2023-07-31T06:07:40;100798.0;;;17.22;88.14
77749;BME280;66938;52.084;5.228;2023-07-31T06:09:17;100798.0;;;17.16;88.26
77749;BME280;66938;52.084;5.228;2023-07-31T06:12:29;100793.0;;;17.14;88.34
77749;BME280;66938;52.084;5.228;2023-07-31T06:14:06;100793.0;;;17.18;88.37
77749;BME280;66938;52.084;5.228;2023-07-31T06:15:43;100783.0;;;17.27;88.03
77749;BME280;66938;52.084;5.228;2023-07-31T06:18:57;100780.0;;;17.29;88.18
77749;BME280;66938;52.084;5.228;2023-07-31T06:20:34;100782.0;;;17.27;88.3
77749;BME280;66938;52.084;5.228;2023-07-31T06:22:11;100785.0;;;17.28;88.34
77749;BME280;66938;52.084;5.228;2023-07-31T06:23:48;100781.0;;;17.29;88.34
77749;BME280;66938;52.084;5.228;2023-07-31T06:27:02;100780.0;;;17.25;88.55
77749;BME280;66938;52.084;5.228;2023-07-31T06:28:38;100778.0;;;17.23;88.6
77749;BME280;66938;52.084;5.228;2023-07-31T06:30:15;100781.0;;;17.34;88.56
77749;BME280;66938;52.084;5.228;2023-07-31T06:33:29;100776.0;;;17.31;88.48
77749;BME280;66938;52.084;5.228;2023-07-31T06:35:07;100768.0;;;17.34;88.53
77749;BME280;66938;52.084;5.228;2023-07-31T06:36:44;100772.0;;;17.3;88.71
77749;BME280;66938;52.084;5.228;2023-07-31T06:40:01;100770.0;;;17.41;88.5
77749;BME280;66938;52.084;5.228;2023-07-31T06:41:38;100765.0;;;17.46;88.37
77749;BME280;66938;52.084;5.228;2023-07-31T06:43:15;100762.0;;;17.43;88.54
77749;BME280;66938;52.084;5.228;2023-07-31T06:44:53;100759.0;;;17.41;88.83
77749;BME280;66938;52.084;5.228;2023-07-31T06:48:06;100753.0;;;17.41;88.83
77749;BME280;66938;52.084;5.228;2023-07-31T06:49:43;100753.0;;;17.45;88.84
77749;BME280;66938;52.084;5.228;2023-07-31T06:51:19;100750.0;;;17.45;89.12
77749;BME280;66938;52.084;5.228;2023-07-31T06:54:32;100748.0;;;17.45;89.48
77749;BME280;66938;52.084;5.228;2023-07-31T06:56:09;100755.0;;;17.43;89.52
77749;BME280;66938;52.084;5.228;2023-07-31T06:57:46;100739.0;;;17.5;89.59
77749;BME280;66938;52.084;5.228;2023-07-31T06:59:23;100742.0;;;17.45;89.44
77749;BME280;66938;52.084;5.228;2023-07-31T07:02:37;100742.0;;;17.45;89.65
77749;BME280;66938;52.084;5.228;2023-07-31T07:04:14;100739.0;;;17.38;89.81
77749;BME280;66938;52.084;5.228;2023-07-31T07:05:52;100740.0;;;17.5;89.78
77749;BME280;66938;52.084;5.228;2023-07-31T07:09:05;100731.0;;;17.45;89.88
77749;BME280;66938;52.084;5.228;2023-07-31T07:10:42;100735.0;;;17.5;89.89
77749;BME280;66938;52.084;5.228;2023-07-31T07:12:19;100733.0;;;17.7;89.36
77749;BME280;66938;52.084;5.228;2023-07-31T07:15:33;100739.0;;;17.61;89.56
77749;BME280;66938;52.084;5.228;2023-07-31T07:17:09;100734.0;;;17.7;89.35
77749;BME280;66938;52.084;5.228;2023-07-31T07:18:47;100735.0;;;17.7;89.39
77749;BME280;66938;52.084;5.228;2023-07-31T07:20:24;100736.0;;;17.59;89.19
77749;BME280;66938;52.084;5.228;2023-07-31T07:23:38;100730.0;;;17.57;89.57
77749;BME280;66938;52.084;5.228;2023-07-31T07:25:15;100733.0;;;17.66;89.43
77749;BME280;66938;52.084;5.228;2023-07-31T07:26:52;100735.0;;;17.7;89.27
77749;BME280;66938;52.084;5.228;2023-07-31T07:30:06;100738.0;;;17.71;89.34
77749;BME280;66938;52.084;5.228;2023-07-31T07:31:43;100736.0;;;17.73;89.27
77749;BME280;66938;52.084;5.228;2023-07-31T07:33:20;100735.0;;;17.68;89.57
77749;BME280;66938;52.084;5.228;2023-07-31T07:34:58;100731.0;;;17.66;89.64
77749;BME280;66938;52.084;5.228;2023-07-31T07:38:13;100735.0;;;17.79;89.39
77749;BME280;66938;52.084;5.228;2023-07-31T07:39:50;100732.0;;;17.7;89.21
77749;BME280;66938;52.084;5.228;2023-07-31T07:41:26;100736.0;;;17.77;89.52
77749;BME280;66938;52.084;5.228;2023-07-31T07:44:39;100733.0;;;17.72;89.52
77749;BME280;66938;52.084;5.228;2023-07-31T07:46:17;100733.0;;;17.75;89.72
77749;BME280;66938;52.084;5.228;2023-07-31T07:47:53;100730.0;;;17.75;89.84
77749;BME280;66938;52.084;5.228;2023-07-31T07:51:08;100728.0;;;17.78;89.88
77749;BME280;66938;52.084;5.228;2023-07-31T07:52:45;100726.0;;;17.89;89.81
77749;BME280;66938;52.084;5.228;2023-07-31T07:54:22;100723.0;;;17.91;89.61
77749;BME280;66938;52.084;5.228;2023-07-31T07:55:59;100730.0;;;17.86;89.51
77749;BME280;66938;52.084;5.228;2023-07-31T07:59:13;100726.0;;;17.86;89.58
77749;BME280;66938;52.084;5.228;2023-07-31T08:00:50;100727.0;;;17.88;89.63
77749;BME280;66938;52.084;5.228;2023-07-31T08:02:27;100733.0;;;17.81;89.84
77749;BME280;66938;52.084;5.228;2023-07-31T08:05:40;100722.0;;;17.88;89.93
77749;BME280;66938;52.084;5.228;2023-07-31T08:07:17;100719.0;;;17.87;90.0
77749;BME280;66938;52.084;5.228;2023-07-31T08:08:54;100723.0;;;17.91;90.09
77749;BME280;66938;52.084;5.228;2023-07-31T08:10:31;100721.0;;;18.04;89.37
77749;BME280;66938;52.084;5.228;2023-07-31T08:13:46;100712.0;;;17.89;89.82
77749;BME280;66938;52.084;5.228;2023-07-31T08:15:22;100705.0;;;17.84;90.09
77749;BME280;66938;52.084;5.228;2023-07-31T08:17:00;100706.0;;;18.0;89.84
77749;BME280;66938;52.084;5.228;2023-07-31T08:20:15;100705.0;;;18.0;89.74
77749;BME280;66938;52.084;5.228;2023-07-31T08:21:52;100697.0;;;18.06;89.25
77749;BME280;66938;52.084;5.228;2023-07-31T08:23:29;100698.0;;;18.07;89.43
77749;BME280;66938;52.084;5.228;2023-07-31T08:25:07;100707.0;;;18.2;89.43
77749;BME280;66938;52.084;5.228;2023-07-31T08:28:21;100698.0;;;18.22;89.41
77749;BME280;66938;52.084;5.228;2023-07-31T08:29:58;100702.0;;;18.22;89.57
77749;BME280;66938;52.084;5.228;2023-07-31T08:31:35;100699.0;;;18.2;89.6
77749;BME280;66938;52.084;5.228;2023-07-31T08:34:48;100697.0;;;18.29;89.22
77749;BME280;66938;52.084;5.228;2023-07-31T08:36:26;100696.0;;;18.27;89.45
77749;BME280;66938;52.084;5.228;2023-07-31T08:38:03;100701.0;;;18.31;89.5
77749;BME280;66938;52.084;5.228;2023-07-31T08:41:17;100694.0;;;18.27;89.4
77749;BME280;66938;52.084;5.228;2023-07-31T08:42:55;100692.0;;;18.38;89.55
77749;BME280;66938;52.084;5.228;2023-07-31T08:44:33;100692.0;;;18.41;89.22
77749;BME280;66938;52.084;5.228;2023-07-31T08:46:11;100697.0;;;18.32;89.89
77749;BME280;66938;52.084;5.228;2023-07-31T08:49:28;100690.0;;;18.36;89.52
77749;BME280;66938;52.084;5.228;2023-07-31T08:51:06;100697.0;;;18.39;89.48
77749;BME280;66938;52.084;5.228;2023-07-31T08:52:45;100691.0;;;18.39;89.11
77749;BME280;66938;52.084;5.228;2023-07-31T08:54:24;100694.0;;;18.36;89.09
77749;BME280;66938;52.084;5.228;2023-07-31T08:57:40;100691.0;;;18.36;89.1
77749;BME280;66938;52.084;5.228;2023-07-31T08:59:19;100693.0;;;18.43;89.31
77749;BME280;66938;52.084;5.228;2023-07-31T09:01:01;100694.0;;;18.39;89.46
77749;BME280;66938;52.084;5.228;2023-07-31T09:04:28;100693.0;;;18.52;89.04
77749;BME280;66938;52.084;5.228;2023-07-31T09:06:06;100693.0;;;18.55;88.89
77749;BME280;66938;52.084;5.228;2023-07-31T09:07:45;100692.0;;;18.61;88.96
77749;BME280;66938;52.084;5.228;2023-07-31T09:09:23;100693.0;;;18.62;88.97
77749;BME280;66938;52.084;5.228;2023-07-31T09:12:38;100698.0;;;18.5;89.2
77749;BME280;66938;52.084;5.228;2023-07-31T09:14:17;100699.0;;;18.47;89.16
77749;BME280;66938;52.084;5.228;2023-07-31T09:15:55;100700.0;;;18.39;89.5
77749;BME280;66938;52.084;5.228;2023-07-31T09:17:33;100694.0;;;18.39;89.69
77749;BME280;66938;52.084;5.228;2023-07-31T09:21:00;100685.0;;;18.54;89.77
77749;BME280;66938;52.084;5.228;2023-07-31T09:22:37;100683.0;;;18.53;90.0
77749;BME280;66938;52.084;5.228;2023-07-31T09:24:24;100681.0;;;18.59;89.72
77749;BME280;66938;52.084;5.228;2023-07-31T09:26:02;100682.0;;;18.55;89.96
77749;BME280;66938;52.084;5.228;2023-07-31T09:29:23;100681.0;;;18.57;89.55
77749;BME280;66938;52.084;5.228;2023-07-31T09:31:01;100677.0;;;18.71;89.45
77749;BME280;66938;52.084;5.228;2023-07-31T09:32:38;100668.0;;;18.59;90.11
77749;BME280;66938;52.084;5.228;2023-07-31T09:34:15;100673.0;;;18.66;89.9
77749;BME280;66938;52.084;5.228;2023-07-31T09:37:29;100672.0;;;18.64;89.81
77749;BME280;66938;52.084;5.228;2023-07-31T09:39:09;100675.0;;;18.7;89.59
77749;BME280;66938;52.084;5.228;2023-07-31T09:40:47;100674.0;;;18.79;89.57
77749;BME280;66938;52.084;5.228;2023-07-31T09:44:03;100675.0;;;18.77;89.48
77749;BME280;66938;52.084;5.228;2023-07-31T09:45:41;100678.0;;;18.71;89.62
77749;BME280;66938;52.084;5.228;2023-07-31T09:47:23;100676.0;;;18.75;89.6
77749;BME280;66938;52.084;5.228;2023-07-31T09:49:10;100672.0;;;18.78;89.39
77749;BME280;66938;52.084;5.228;2023-07-31T09:52:26;100673.0;;;18.77;89.61
77749;BME280;66938;52.084;5.228;2023-07-31T09:54:03;100675.0;;;18.84;89.58
77749;BME280;66938;52.084;5.228;2023-07-31T09:55:41;100676.0;;;18.86;89.32
77749;BME280;66938;52.084;5.228;2023-07-31T09:57:21;100675.0;;;18.77;89.72
77749;BME280;66938;52.084;5.228;2023-07-31T10:00:37;100680.0;;;18.73;89.32
77749;BME280;66938;52.084;5.228;2023-07-31T10:02:17;100678.0;;;18.71;89.53
77749;BME280;66938;52.084;5.228;2023-07-31T10:03:58;100676.0;;;18.89;89.06
77749;BME280;66938;52.084;5.228;2023-07-31T10:05:36;100668.0;;;18.87;88.99
77749;BME280;66938;52.084;5.228;2023-07-31T10:08:54;100670.0;;;18.95;88.8
77749;BME280;66938;52.084;5.228;2023-07-31T10:10:35;100666.0;;;18.87;88.98
77749;BME280;66938;52.084;5.228;2023-07-31T10:12:14;100673.0;;;18.89;88.82
77749;BME280;66938;52.084;5.228;2023-07-31T10:13:55;100674.0;;;18.81;88.91
77749;BME280;66938;52.084;5.228;2023-07-31T10:17:11;100675.0;;;18.8;89.11
77749;BME280;66938;52.084;5.228;2023-07-31T10:18:49;100675.0;;;18.91;88.79
77749;BME280;66938;52.084;5.228;2023-07-31T10:20:27;100678.0;;;18.71;89.15
77749;BME280;66938;52.084;5.228;2023-07-31T10:23:44;100673.0;;;18.8;89.19
77749;BME280;66938;52.084;5.228;2023-07-31T10:25:22;100684.0;;;18.84;89.18
77749;BME280;66938;52.084;5.228;2023-07-31T10:27:01;100678.0;;;18.79;89.29
77749;BME280;66938;52.084;5.228;2023-07-31T10:28:39;100671.0;;;18.86;89.15
77749;BME280;66938;52.084;5.228;2023-07-31T10:31:57;100673.0;;;18.89;88.87
77749;BME280;66938;52.084;5.228;2023-07-31T10:33:34;100671.0;;;18.91;88.66
77749;BME280;66938;52.084;5.228;2023-07-31T10:35:11;100672.0;;;18.91;88.78
77749;BME280;66938;52.084;5.228;2023-07-31T10:38:25;100671.0;;;18.98;88.55
77749;BME280;66938;52.084;5.228;2023-07-31T10:40:03;100670.0;;;19.02;88.64
77749;BME280;66938;52.084;5.228;2023-07-31T10:41:41;100670.0;;;19.0;88.76
77749;BME280;66938;52.084;5.228;2023-07-31T10:43:25;100668.0;;;19.02;88.54
77749;BME280;66938;52.084;5.228;2023-07-31T10:46:45;100672.0;;;19.03;88.48
77749;BME280;66938;52.084;5.228;2023-07-31T10:48:22;100676.0;;;18.95;88.76
77749;BME280;66938;52.084;5.228;2023-07-31T10:50:32;100671.0;;;19.0;88.62
77749;BME280;66938;52.084;5.228;2023-07-31T10:52:10;100675.0;;;19.0;89.13
77749;BME280;66938;52.084;5.228;2023-07-31T10:53:48;100682.0;;;19.07;88.98
77749;BME280;66938;52.084;5.228;2023-07-31T10:57:19;100678.0;;;18.97;89.24
77749;BME280;66938;52.084;5.228;2023-07-31T10:59:00;100672.0;;;19.03;89.35
77749;BME280;66938;52.084;5.228;2023-07-31T11:00:39;100678.0;;;19.02;89.15
77749;BME280;66938;52.084;5.228;2023-07-31T11:02:24;100664.0;;;19.09;88.82
77749;BME280;66938;52.084;5.228;2023-07-31T11:05:50;100667.0;;;19.09;88.91
77749;BME280;66938;52.084;5.228;2023-07-31T11:07:46;100675.0;;;19.06;89.0